createdAt,value
2018-06-05T00:00:02.579Z,99940.28
2018-06-05T00:01:42.688Z,99913.48
2018-06-05T00:03:22.724Z,99869.84
2018-06-05T00:05:00.904Z,99882.25
2018-06-05T00:06:40.798Z,99865.88
2018-06-05T00:08:22.002Z,99882.73
2018-06-05T00:10:02.628Z,99853.16
2018-06-05T00:11:40.780Z,99810.65
2018-06-05T00:13:18.447Z,99823.05
2018-06-05T00:14:54.963Z,99833.70
2018-06-05T00:16:32.225Z,99793.78
2018-06-05T00:18:09.848Z,99748.63
2018-06-05T00:19:47.713Z,99759.32
2018-06-05T00:21:26.253Z,99784.55
2018-06-05T00:23:04.479Z,99737.73
2018-06-05T00:24:43.841Z,99630.23
2018-06-05T00:26:21.297Z,99648.42
2018-06-05T00:28:01.451Z,99764.30
2018-06-05T00:29:41.515Z,99800.63
2018-06-05T00:31:19.768Z,99714.26
2018-06-05T00:32:57.853Z,99747.47
2018-06-05T00:34:34.624Z,99761.61
2018-06-05T00:36:11.575Z,99825.45
2018-06-05T00:37:50.825Z,99786.84
2018-06-05T00:39:28.788Z,99750.05
2018-06-05T00:41:06.657Z,99728.87
2018-06-05T00:42:44.027Z,99756.78
2018-06-05T00:44:23.584Z,99709.50
2018-06-05T00:46:01.912Z,99720.52
2018-06-05T00:47:40.398Z,99735.59
2018-06-05T00:49:18.556Z,99735.59
2018-06-05T00:50:55.474Z,99686.14
2018-06-05T00:52:37.586Z,99692.76
2018-06-05T00:54:19.699Z,99752.54
2018-06-05T00:55:57.080Z,99774.59
2018-06-05T00:57:36.692Z,99810.05
2018-06-05T00:59:13.388Z,99783.95
2018-06-05T01:00:50.948Z,99742.44
2018-06-05T01:02:27.295Z,99689.78
2018-06-05T01:04:04.943Z,99713.19
2018-06-05T01:05:41.366Z,99717.69
2018-06-05T01:07:17.855Z,99700.94
2018-06-05T01:08:54.799Z,99721.62
2018-06-05T01:10:31.513Z,99635.33
2018-06-05T01:12:08.757Z,99587.77
2018-06-05T01:13:45.303Z,99509.89
2018-06-05T01:15:22.032Z,99555.09
2018-06-05T01:17:01.491Z,99571.82
2018-06-05T01:18:38.819Z,99602.32
2018-06-05T01:20:15.365Z,99616.45
2018-06-05T01:22:54.462Z,99699.20
2018-06-05T01:24:31.510Z,99668.61
2018-06-05T01:26:07.818Z,99691.69
2018-06-05T01:27:45.237Z,99659.94
2018-06-05T01:29:21.920Z,99659.42
2018-06-05T01:30:58.854Z,99682.45
2018-06-05T01:32:35.220Z,99749.25
2018-06-05T01:34:15.672Z,99762.91
2018-06-05T01:35:52.045Z,99602.09
2018-06-05T01:37:30.530Z,99667.13
2018-06-05T01:39:10.222Z,99705.53
2018-06-05T01:40:46.810Z,99731.22
2018-06-05T01:42:23.106Z,99782.55
2018-06-05T01:45:37.976Z,99844.46
2018-06-05T01:47:14.588Z,99813.55
2018-06-05T01:48:51.609Z,99872.86
2018-06-05T01:50:30.602Z,99911.05
2018-06-05T01:52:07.481Z,99968.58
2018-06-05T01:53:44.358Z,99839.73
2018-06-05T01:55:23.855Z,99868.06
2018-06-05T01:57:04.752Z,99849.45
2018-06-05T01:58:42.032Z,99857.05
2018-06-05T02:00:20.302Z,99826.14
2018-06-05T02:01:57.748Z,99703.98
2018-06-05T02:03:36.889Z,99770.30
2018-06-05T02:05:15.201Z,99635.83
2018-06-05T02:06:52.071Z,99642.16
2018-06-05T02:08:28.775Z,99703.58
2018-06-05T02:10:06.694Z,99765.94
2018-06-05T02:11:42.971Z,99665.55
2018-06-05T02:13:21.070Z,99746.58
2018-06-05T02:14:57.554Z,99786.84
2018-06-05T02:16:34.204Z,99888.63
2018-06-05T02:18:10.575Z,99814.26
2018-06-05T02:19:46.901Z,99886.04
2018-06-05T02:21:23.247Z,99976.84
2018-06-05T02:22:59.814Z,100026.48
2018-06-05T02:24:37.041Z,100042.87
2018-06-05T02:26:15.487Z,99943.19
2018-06-05T02:27:52.382Z,99909.69
2018-06-05T02:29:28.883Z,99921.22
2018-06-05T02:31:08.057Z,99974.30
2018-06-05T02:32:45.029Z,100003.05
2018-06-05T02:34:21.671Z,99825.03
2018-06-05T02:35:58.644Z,99798.09
2018-06-05T02:37:35.256Z,99845.94
2018-06-05T02:39:11.748Z,99847.68
2018-06-05T02:40:49.192Z,99787.00
2018-06-05T02:42:25.773Z,99860.95
2018-06-05T02:44:02.613Z,99948.36
2018-06-05T02:45:39.227Z,99841.97
2018-06-05T02:47:17.167Z,99885.03
2018-06-05T02:48:53.464Z,99994.42
2018-06-05T02:50:31.412Z,100055.57
2018-06-05T02:52:07.907Z,100064.42
2018-06-05T02:53:44.816Z,100068.31
2018-06-05T02:55:21.363Z,100062.20
2018-06-05T02:56:58.245Z,100012.19
2018-06-05T02:58:35.013Z,99948.91
2018-06-05T03:00:11.690Z,99982.09
2018-06-05T03:01:48.591Z,99892.63
2018-06-05T03:03:24.816Z,99836.85
2018-06-05T03:05:01.564Z,99861.21
2018-06-05T03:06:38.371Z,100033.08
2018-06-05T03:08:15.544Z,100112.05
2018-06-05T03:09:51.731Z,100122.57
2018-06-05T03:11:28.140Z,100136.77
2018-06-05T03:13:04.675Z,100111.17
2018-06-05T03:14:41.616Z,99845.33
2018-06-05T03:16:18.553Z,99714.37
2018-06-05T03:17:55.419Z,99782.62
2018-06-05T03:19:32.607Z,99813.04
2018-06-05T03:21:09.890Z,99875.95
2018-06-05T03:22:46.574Z,99939.70
2018-06-05T03:24:23.164Z,99937.48
2018-06-05T03:26:00.578Z,99917.16
2018-06-05T03:27:37.054Z,99837.00
2018-06-05T03:29:14.153Z,99914.06
2018-06-05T03:30:50.526Z,99938.07
2018-06-05T03:32:27.236Z,99910.50
2018-06-05T03:34:04.291Z,99771.93
2018-06-05T03:35:47.643Z,99900.86
2018-06-05T03:37:24.459Z,99878.23
2018-06-05T03:39:03.032Z,99688.87
2018-06-05T03:40:40.303Z,99597.35
2018-06-05T03:42:17.286Z,99602.73
2018-06-05T03:43:54.117Z,99737.63
2018-06-05T03:45:31.848Z,99821.19
2018-06-05T03:47:10.165Z,99744.17
2018-06-05T03:48:47.470Z,99785.78
2018-06-05T03:50:24.671Z,99795.13
2018-06-05T03:52:02.927Z,99772.59
2018-06-05T03:53:39.757Z,99853.08
2018-06-05T03:55:16.061Z,99826.58
2018-06-05T03:56:53.236Z,99762.85
2018-06-05T03:58:31.074Z,99799.16
2018-06-05T04:00:07.911Z,99719.46
2018-06-05T04:01:44.942Z,99728.77
2018-06-05T04:03:21.732Z,99646.12
2018-06-05T04:04:58.699Z,99716.92
2018-06-05T04:06:35.476Z,99659.86
2018-06-05T04:08:13.237Z,99801.05
2018-06-05T04:09:50.436Z,99940.52
2018-06-05T04:11:28.217Z,99991.84
2018-06-05T04:13:04.825Z,100026.82
2018-06-05T04:14:42.646Z,100029.04
2018-06-05T04:16:20.195Z,100073.95
2018-06-05T04:17:56.437Z,100043.30
2018-06-05T04:19:32.804Z,100118.64
2018-06-05T04:21:12.249Z,100095.66
2018-06-05T04:22:48.619Z,99994.61
2018-06-05T04:24:24.880Z,100083.31
2018-06-05T04:26:03.650Z,100099.70
2018-06-05T04:27:40.455Z,100006.58
2018-06-05T04:29:19.428Z,100074.91
2018-06-05T04:30:56.533Z,100085.90
2018-06-05T04:32:35.739Z,100066.05
2018-06-05T04:34:16.276Z,100146.75
2018-06-05T04:35:55.541Z,99912.76
2018-06-05T04:37:33.196Z,99691.11
2018-06-05T04:39:13.007Z,99615.02
2018-06-05T04:40:50.143Z,99713.63
2018-06-05T04:42:26.734Z,99797.17
2018-06-05T04:44:03.925Z,99722.02
2018-06-05T04:45:42.922Z,99788.81
2018-06-05T04:47:21.011Z,99933.56
2018-06-05T04:48:58.837Z,99951.75
2018-06-05T04:50:36.544Z,99887.59
2018-06-05T04:52:14.108Z,99833.64
2018-06-05T04:53:51.186Z,99931.02
2018-06-05T04:55:27.856Z,100061.77
2018-06-05T04:57:05.536Z,100103.41
2018-06-05T04:58:42.875Z,100147.33
2018-06-05T05:00:20.207Z,100113.17
2018-06-05T05:01:56.414Z,100170.86
2018-06-05T05:03:32.722Z,100270.65
2018-06-05T05:05:12.263Z,100299.41
2018-06-05T05:06:50.399Z,100279.44
2018-06-05T05:08:26.699Z,100290.63
2018-06-05T05:10:03.324Z,100371.95
2018-06-05T05:11:39.595Z,100428.20
2018-06-05T05:13:17.533Z,100438.92
2018-06-05T05:14:53.854Z,100418.05
2018-06-05T05:16:30.404Z,100349.71
2018-06-05T05:18:08.756Z,100372.36
2018-06-05T05:19:46.489Z,100388.36
2018-06-05T05:21:22.791Z,100351.94
2018-06-05T05:22:59.328Z,100329.80
2018-06-05T05:24:35.712Z,100324.48
2018-06-05T05:26:12.802Z,100232.12
2018-06-05T05:27:49.170Z,100295.21
2018-06-05T05:29:25.925Z,100351.61
2018-06-05T05:31:05.202Z,100305.37
2018-06-05T05:32:41.943Z,100097.87
2018-06-05T05:34:18.267Z,100177.27
2018-06-05T05:35:55.182Z,100094.34
2018-06-05T05:37:32.786Z,100051.89
2018-06-05T05:39:10.590Z,100186.63
2018-06-05T05:40:46.903Z,100187.50
2018-06-05T05:42:24.167Z,100074.06
2018-06-05T05:44:02.725Z,100116.19
2018-06-05T05:45:39.742Z,100161.34
2018-06-05T05:47:16.009Z,100255.41
2018-06-05T05:48:52.323Z,100364.55
2018-06-05T05:50:28.747Z,100481.37
2018-06-05T05:52:05.686Z,100344.64
2018-06-05T05:53:42.081Z,100226.08
2018-06-05T05:55:19.796Z,100219.05
2018-06-05T05:56:56.274Z,100376.61
2018-06-05T05:58:32.547Z,100511.22
2018-06-05T06:00:09.481Z,100602.80
2018-06-05T06:01:46.253Z,100680.55
2018-06-05T06:03:23.635Z,100679.77
2018-06-05T06:05:00.599Z,100693.05
2018-06-05T06:06:37.020Z,100666.88
2018-06-05T06:08:13.444Z,100706.00
2018-06-05T06:09:52.472Z,100567.75
2018-06-05T06:11:29.213Z,100373.58
2018-06-05T06:13:05.612Z,100355.42
2018-06-05T06:14:41.915Z,100531.31
2018-06-05T06:16:20.580Z,100590.38
2018-06-05T06:17:58.898Z,100571.80
2018-06-05T06:19:40.226Z,100495.34
2018-06-05T06:21:18.277Z,100598.95
2018-06-05T06:22:56.626Z,100670.52
2018-06-05T06:24:33.569Z,100711.00
2018-06-05T06:26:12.545Z,100663.41
2018-06-05T06:27:49.118Z,100677.61
2018-06-05T06:29:26.678Z,100687.00
2018-06-05T06:31:02.879Z,100640.35
2018-06-05T06:32:39.077Z,100590.08
2018-06-05T06:34:15.360Z,100705.73
2018-06-05T06:35:52.110Z,100768.97
2018-06-05T06:37:29.247Z,100788.93
2018-06-05T06:39:09.339Z,100808.08
2018-06-05T06:40:45.684Z,100707.02
2018-06-05T06:42:22.495Z,100550.10
2018-06-05T06:43:59.010Z,100486.60
2018-06-05T06:47:06.820Z,100726.26
2018-06-05T06:48:43.401Z,100702.25
2018-06-05T06:50:20.050Z,100722.58
2018-06-05T06:51:57.868Z,100680.78
2018-06-05T06:53:34.197Z,100624.39
2018-06-05T06:55:11.077Z,100632.86
2018-06-05T06:56:47.427Z,100484.84
2018-06-05T06:58:23.751Z,100540.83
2018-06-05T07:00:00.795Z,100583.16
2018-06-05T07:01:37.542Z,100598.17
2018-06-05T07:03:15.569Z,100557.73
2018-06-05T07:04:53.642Z,100547.51
2018-06-05T07:06:29.998Z,100700.50
2018-06-05T07:08:06.864Z,100846.48
2018-06-05T07:09:47.311Z,100911.00
2018-06-05T07:11:27.545Z,100856.76
2018-06-05T07:13:03.999Z,100765.45
2018-06-05T07:14:41.108Z,100764.58
2018-06-05T07:16:21.407Z,100791.23
2018-06-05T07:17:58.654Z,100879.91
2018-06-05T07:19:35.540Z,100846.48
2018-06-05T07:21:15.523Z,100771.67
2018-06-05T07:22:53.945Z,100670.69
2018-06-05T07:24:30.855Z,100483.50
2018-06-05T07:26:08.017Z,100410.73
2018-06-05T07:27:44.778Z,100348.52
2018-06-05T07:29:21.819Z,100351.22
2018-06-05T07:30:59.703Z,100384.91
2018-06-05T07:32:37.083Z,100375.58
2018-06-05T07:34:14.647Z,100372.07
2018-06-05T07:35:50.928Z,100359.13
2018-06-05T07:37:27.207Z,100321.87
2018-06-05T07:39:03.843Z,100294.42
2018-06-05T07:40:41.021Z,100346.30
2018-06-05T07:42:19.860Z,100356.53
2018-06-05T07:43:57.135Z,100331.71
2018-06-05T07:45:35.455Z,100353.84
2018-06-05T07:47:15.508Z,100309.88
2018-06-05T07:48:53.335Z,100271.69
2018-06-05T07:50:31.582Z,100279.77
2018-06-05T07:52:10.248Z,100294.42
2018-06-05T07:53:47.004Z,100321.00
2018-06-05T07:55:23.309Z,100313.45
2018-06-05T07:57:00.143Z,100328.14
2018-06-05T07:58:38.540Z,100253.61
2018-06-05T08:00:18.055Z,100274.85
2018-06-05T08:01:54.427Z,100301.56
2018-06-05T08:03:32.489Z,100313.45
2018-06-05T08:05:11.570Z,100283.23
2018-06-05T08:06:48.282Z,100239.40
2018-06-05T08:08:25.431Z,100199.47
2018-06-05T08:10:03.229Z,100255.83
2018-06-05T08:11:39.650Z,100244.72
2018-06-05T08:13:16.286Z,100196.84
2018-06-05T08:14:55.021Z,100226.56
2018-06-05T08:16:31.461Z,100327.33
2018-06-05T08:18:09.260Z,100440.95
2018-06-05T08:19:49.648Z,100488.02
2018-06-05T08:21:26.473Z,100488.02
2018-06-05T08:23:04.049Z,100470.25
2018-06-05T08:24:41.877Z,100414.77
2018-06-05T08:26:20.200Z,100496.98
2018-06-05T08:27:58.383Z,100525.89
2018-06-05T08:29:35.621Z,100522.25
2018-06-05T08:31:12.093Z,100516.14
2018-06-05T08:32:48.904Z,100532.56
2018-06-05T08:34:25.124Z,100521.91
2018-06-05T08:36:02.723Z,100581.47
2018-06-05T08:37:40.385Z,100599.25
2018-06-05T08:39:17.731Z,100520.97
2018-06-05T08:40:54.001Z,100516.04
2018-06-05T08:42:31.556Z,100481.45
2018-06-05T08:44:08.867Z,100489.84
2018-06-05T08:45:45.215Z,100492.95
2018-06-05T08:47:21.369Z,100527.71
2018-06-05T08:48:59.639Z,100532.56
2018-06-05T08:50:37.992Z,100549.94
2018-06-05T08:52:19.363Z,100535.67
2018-06-05T08:53:57.159Z,100515.64
2018-06-05T08:55:37.031Z,100525.42
2018-06-05T08:57:14.114Z,100454.44
2018-06-05T08:58:51.199Z,100537.09
2018-06-05T09:00:30.278Z,100626.06
2018-06-05T09:02:08.912Z,100637.55
2018-06-05T09:03:47.660Z,100695.80
2018-06-05T09:05:25.807Z,100689.19
2018-06-05T09:07:03.650Z,100789.70
2018-06-05T09:08:41.717Z,100814.66
2018-06-05T09:10:19.322Z,100713.12
2018-06-05T09:11:55.745Z,100698.03
2018-06-05T09:13:32.173Z,100709.55
2018-06-05T09:15:09.786Z,100751.41
2018-06-05T09:16:47.611Z,100762.08
2018-06-05T09:18:24.499Z,100758.50
2018-06-05T09:20:01.234Z,100802.26
2018-06-05T09:21:37.555Z,100790.23
2018-06-05T09:23:13.982Z,100816.01
2018-06-05T09:24:51.307Z,100812.91
2018-06-05T09:26:28.149Z,100825.87
2018-06-05T09:28:05.534Z,100717.17
2018-06-05T09:29:43.537Z,100673.63
2018-06-05T09:31:27.923Z,100763.02
2018-06-05T09:33:04.135Z,100849.01
2018-06-05T09:34:40.486Z,100773.69
2018-06-05T09:36:19.460Z,100695.87
2018-06-05T09:37:59.558Z,100715.41
2018-06-05T09:39:35.890Z,100763.49
2018-06-05T09:41:12.827Z,100797.73
2018-06-05T09:42:50.176Z,100755.39
2018-06-05T09:44:29.630Z,100725.58
2018-06-05T09:46:09.799Z,100620.71
2018-06-05T09:47:49.178Z,100551.39
2018-06-05T09:49:27.380Z,100528.66
2018-06-05T09:51:04.748Z,100590.52
2018-06-05T09:52:41.673Z,100607.45
2018-06-05T09:54:19.370Z,100666.94
2018-06-05T09:56:00.645Z,100544.71
2018-06-05T09:57:39.048Z,100646.12
2018-06-05T09:59:15.595Z,100727.50
2018-06-05T10:00:53.667Z,100827.63
2018-06-05T10:02:30.614Z,100841.38
2018-06-05T10:04:07.627Z,100794.22
2018-06-05T10:05:43.923Z,100805.37
2018-06-05T10:07:20.176Z,100820.53
2018-06-05T10:08:56.499Z,100743.00
2018-06-05T10:10:33.650Z,100662.08
2018-06-05T10:12:09.994Z,100695.39
2018-06-05T10:13:46.313Z,100651.86
2018-06-05T10:15:25.380Z,100637.68
2018-06-05T10:17:02.296Z,100681.25
2018-06-05T10:18:38.551Z,100742.19
2018-06-05T10:20:18.715Z,100756.80
2018-06-05T10:21:55.386Z,100810.27
2018-06-05T10:23:35.510Z,100822.77
2018-06-05T10:25:18.225Z,100842.73
2018-06-05T10:26:54.431Z,100830.80
2018-06-05T10:28:33.855Z,100845.02
2018-06-05T10:30:12.334Z,100859.75
2018-06-05T10:31:51.442Z,100872.22
2018-06-05T10:33:29.547Z,100886.48
2018-06-05T10:35:08.399Z,100828.57
2018-06-05T10:36:47.906Z,100831.67
2018-06-05T10:38:25.389Z,100732.02
2018-06-05T10:40:02.239Z,100843.67
2018-06-05T10:41:41.892Z,100939.94
2018-06-05T10:43:23.798Z,100930.95
2018-06-05T10:45:04.430Z,101009.41
2018-06-05T10:46:40.829Z,101046.81
2018-06-05T10:48:18.257Z,100942.08
2018-06-05T10:49:57.274Z,100919.33
2018-06-05T10:51:38.394Z,100807.19
2018-06-05T10:53:15.662Z,100789.77
2018-06-05T10:54:53.939Z,100792.47
2018-06-05T10:56:36.508Z,100764.38
2018-06-05T10:58:12.792Z,100764.38
2018-06-05T10:59:50.943Z,100797.33
2018-06-05T11:01:28.843Z,100761.27
2018-06-05T11:03:05.170Z,100789.36
2018-06-05T11:04:43.314Z,100698.09
2018-06-05T11:06:20.659Z,100846.78
2018-06-05T11:08:00.371Z,100993.80
2018-06-05T11:09:37.212Z,100989.84
2018-06-05T11:11:17.089Z,101045.94
2018-06-05T11:12:55.026Z,101143.13
2018-06-05T11:14:32.774Z,101155.30
2018-06-05T11:16:10.346Z,101217.31
2018-06-05T11:17:47.635Z,101195.79
2018-06-05T11:19:24.082Z,101023.24
2018-06-05T11:21:06.758Z,100871.75
2018-06-05T11:22:47.222Z,100946.06
2018-06-05T11:26:07.084Z,101022.77
2018-06-05T11:27:44.499Z,101060.63
2018-06-05T11:29:24.306Z,101016.48
2018-06-05T11:31:01.843Z,100994.77
2018-06-05T11:32:38.813Z,100953.70
2018-06-05T11:34:17.066Z,100960.86
2018-06-05T11:35:56.413Z,101062.09
2018-06-05T11:37:32.696Z,101003.19
2018-06-05T11:39:10.033Z,100989.37
2018-06-05T11:40:49.389Z,101075.33
2018-06-05T11:42:26.484Z,101120.80
2018-06-05T11:44:03.526Z,101119.03
2018-06-05T11:45:41.009Z,101101.68
2018-06-05T11:47:18.221Z,101048.98
2018-06-05T11:49:01.443Z,101022.30
2018-06-05T11:50:46.507Z,100998.66
2018-06-05T11:52:23.994Z,101030.82
2018-06-05T11:54:02.386Z,101003.59
2018-06-05T11:55:41.248Z,101008.95
2018-06-05T11:57:18.866Z,100940.72
2018-06-05T11:58:55.805Z,100951.00
2018-06-05T12:00:33.584Z,101006.71
2018-06-05T12:02:14.717Z,101101.68
2018-06-05T12:03:51.920Z,101211.36
2018-06-05T12:05:29.547Z,101134.23
2018-06-05T12:07:06.690Z,101158.35
2018-06-05T12:08:44.742Z,101215.89
2018-06-05T12:10:21.566Z,101295.77
2018-06-05T12:11:57.818Z,101317.20
2018-06-05T12:15:11.559Z,101042.35
2018-06-05T12:16:52.606Z,101065.52
2018-06-05T12:18:34.970Z,101132.47
2018-06-05T12:20:13.854Z,101219.02
2018-06-05T12:21:51.815Z,101226.15
2018-06-05T12:23:28.340Z,101038.80
2018-06-05T12:25:04.772Z,100769.36
2018-06-05T12:26:43.529Z,100724.80
2018-06-05T12:28:20.676Z,100871.69
2018-06-05T12:29:57.954Z,101068.63
2018-06-05T12:31:37.394Z,101225.20
2018-06-05T12:33:18.093Z,101085.61
2018-06-05T12:34:58.990Z,101219.48
2018-06-05T12:36:37.683Z,101231.09
2018-06-05T12:38:17.306Z,101300.20
2018-06-05T12:40:01.397Z,101369.37
2018-06-05T12:41:45.249Z,101364.91
2018-06-05T12:43:26.475Z,101327.88
2018-06-05T12:45:03.581Z,101309.97
2018-06-05T12:46:44.506Z,101378.29
2018-06-05T12:48:23.338Z,101436.84
2018-06-05T12:50:08.684Z,101292.18
2018-06-05T12:51:45.495Z,101152.53
2018-06-05T12:53:22.498Z,101141.78
2018-06-05T12:55:01.268Z,100969.69
2018-06-05T12:56:40.650Z,101027.17
2018-06-05T12:58:17.197Z,101014.76
2018-06-05T12:59:54.756Z,101168.17
2018-06-05T13:01:35.622Z,101206.02
2018-06-05T13:03:12.120Z,101086.40
2018-06-05T13:04:48.813Z,101021.42
2018-06-05T13:06:26.794Z,101155.18
2018-06-05T13:08:06.865Z,101371.99
2018-06-05T13:09:43.472Z,101414.92
2018-06-05T13:11:20.564Z,101452.44
2018-06-05T13:12:57.388Z,101446.55
2018-06-05T13:14:34.349Z,101422.48
2018-06-05T13:16:12.718Z,101450.17
2018-06-05T13:17:50.697Z,101439.91
2018-06-05T13:19:27.563Z,101289.47
2018-06-05T13:21:04.189Z,101364.91
2018-06-05T13:22:41.942Z,101241.73
2018-06-05T13:24:18.793Z,101290.83
2018-06-05T13:25:55.192Z,101356.38
2018-06-05T13:27:32.429Z,101183.71
2018-06-05T13:29:09.422Z,101081.55
2018-06-05T13:30:47.756Z,100979.50
2018-06-05T13:32:24.871Z,101039.65
2018-06-05T13:34:01.477Z,101240.37
2018-06-05T13:35:38.743Z,101392.50
2018-06-05T13:37:15.550Z,101509.61
2018-06-05T13:38:52.090Z,101487.27
2018-06-05T13:40:28.992Z,101423.30
2018-06-05T13:42:05.311Z,101297.84
2018-06-05T13:43:42.298Z,101372.41
2018-06-05T13:45:20.210Z,101398.73
2018-06-05T13:46:58.268Z,101329.11
2018-06-05T13:48:36.854Z,101377.34
2018-06-05T13:50:14.179Z,101338.42
2018-06-05T13:51:51.781Z,101358.55
2018-06-05T13:53:28.465Z,101500.66
2018-06-05T13:55:06.818Z,101560.48
2018-06-05T13:56:43.995Z,101458.16
2018-06-05T13:58:25.593Z,101232.73
2018-06-05T14:00:03.079Z,101327.76
2018-06-05T14:01:42.093Z,101452.38
2018-06-05T14:03:19.639Z,101384.84
2018-06-05T14:04:56.897Z,101368.34
2018-06-05T14:06:34.050Z,101271.95
2018-06-05T14:08:10.511Z,101296.91
2018-06-05T14:09:47.287Z,101421.01
2018-06-05T14:11:23.697Z,101416.13
2018-06-05T14:13:00.402Z,101420.59
2018-06-05T14:14:39.759Z,101458.62
2018-06-05T14:16:16.826Z,101533.25
2018-06-05T14:17:54.605Z,101542.98
2018-06-05T14:19:31.559Z,101452.33
2018-06-05T14:21:10.402Z,101539.87
2018-06-05T14:22:47.762Z,101546.17
2018-06-05T14:24:24.992Z,101569.88
2018-06-05T14:26:02.914Z,101665.08
2018-06-05T14:27:40.075Z,101528.30
2018-06-05T14:29:18.353Z,101366.52
2018-06-05T14:30:59.738Z,101346.02
2018-06-05T14:32:38.292Z,101385.26
2018-06-05T14:34:15.439Z,101454.09
2018-06-05T14:35:53.709Z,101357.20
2018-06-05T14:37:30.962Z,101338.42
2018-06-05T14:39:09.790Z,101236.69
2018-06-05T14:40:46.772Z,101207.63
2018-06-05T14:42:24.754Z,101372.75
2018-06-05T14:44:01.819Z,101466.12
2018-06-05T14:45:40.957Z,101471.95
2018-06-05T14:47:17.816Z,101633.32
2018-06-05T14:48:55.682Z,101501.80
2018-06-05T14:50:33.168Z,101323.22
2018-06-05T14:52:12.567Z,101253.13
2018-06-05T14:53:50.574Z,101431.69
2018-06-05T14:55:31.813Z,101515.28
2018-06-05T14:57:10.615Z,101488.88
2018-06-05T14:58:47.397Z,101340.61
2018-06-05T15:00:25.858Z,101352.16
2018-06-05T15:02:04.132Z,101500.54
2018-06-05T15:03:41.540Z,101556.80
2018-06-05T15:05:20.040Z,101639.95
2018-06-05T15:06:58.391Z,101554.56
2018-06-05T15:08:35.465Z,101617.17
2018-06-05T15:10:14.849Z,101765.35
2018-06-05T15:11:52.231Z,101876.27
2018-06-05T15:13:31.266Z,101810.84
2018-06-05T15:15:12.769Z,101810.05
2018-06-05T15:16:52.675Z,101797.95
2018-06-05T15:18:29.941Z,101819.87
2018-06-05T15:20:07.778Z,101827.06
2018-06-05T15:21:47.678Z,101544.28
2018-06-05T15:23:27.432Z,101505.86
2018-06-05T15:25:03.647Z,101560.39
2018-06-05T15:26:40.040Z,101497.36
2018-06-05T15:28:16.739Z,101468.30
2018-06-05T15:29:55.578Z,101327.55
2018-06-05T15:31:33.315Z,101447.32
2018-06-05T15:33:09.772Z,101374.43
2018-06-05T15:34:47.573Z,101266.47
2018-06-05T15:36:24.339Z,101300.34
2018-06-05T15:38:00.765Z,101225.34
2018-06-05T15:39:37.554Z,101252.59
2018-06-05T15:41:15.695Z,101439.20
2018-06-05T15:42:53.611Z,101523.67
2018-06-05T15:44:30.123Z,101512.46
2018-06-05T15:46:10.994Z,101495.03
2018-06-05T15:47:51.162Z,101554.03
2018-06-05T15:49:27.503Z,101626.55
2018-06-05T15:51:03.527Z,101734.66
2018-06-05T15:52:41.416Z,101756.59
2018-06-05T15:54:18.742Z,101804.54
2018-06-05T15:55:56.821Z,101804.06
2018-06-05T15:57:33.160Z,101553.09
2018-06-05T15:59:09.996Z,101459.77
2018-06-05T16:00:48.312Z,101385.55
2018-06-05T16:02:28.443Z,101346.69
2018-06-05T16:04:06.222Z,101400.28
2018-06-05T16:05:48.364Z,101380.20
2018-06-05T16:07:24.717Z,101532.51
2018-06-05T16:09:03.095Z,101629.05
2018-06-05T16:10:39.949Z,101692.95
2018-06-05T16:12:17.047Z,101697.50
2018-06-05T16:13:54.225Z,101559.71
2018-06-05T16:15:30.964Z,101512.84
2018-06-05T16:17:10.303Z,101559.80
2018-06-05T16:18:48.308Z,101644.28
2018-06-05T16:20:28.123Z,101517.31
2018-06-05T16:22:05.667Z,101471.27
2018-06-05T16:23:42.058Z,101390.34
2018-06-05T16:25:18.386Z,101405.96
2018-06-05T16:26:55.686Z,101429.72
2018-06-05T16:28:32.828Z,101477.98
2018-06-05T16:30:11.144Z,101458.73
2018-06-05T16:31:50.318Z,101601.33
2018-06-05T16:33:29.678Z,101777.56
2018-06-05T16:35:06.480Z,101744.52
2018-06-05T16:36:42.796Z,101705.52
2018-06-05T16:38:19.927Z,101629.94
2018-06-05T16:39:57.685Z,101489.14
2018-06-05T16:41:34.262Z,101407.77
2018-06-05T16:43:12.981Z,101517.25
2018-06-05T16:44:54.246Z,101432.33
2018-06-05T16:46:31.656Z,101386.75
2018-06-05T16:48:08.458Z,101510.95
2018-06-05T16:49:49.627Z,101525.73
2018-06-05T16:51:27.645Z,101477.05
2018-06-05T16:53:04.334Z,101428.27
2018-06-05T16:54:40.983Z,101370.66
2018-06-05T16:56:19.435Z,101285.80
2018-06-05T16:57:57.487Z,101297.92
2018-06-05T16:59:37.336Z,101398.28
2018-06-05T17:01:14.791Z,101440.81
2018-06-05T17:02:54.533Z,101586.02
2018-06-05T17:06:40.673Z,101831.62
2018-06-05T17:08:20.689Z,101906.90
2018-06-05T17:10:00.028Z,101794.98
2018-06-05T17:11:37.369Z,101647.76
2018-06-05T17:13:18.483Z,101602.53
2018-06-05T17:14:58.830Z,101719.28
2018-06-05T17:16:36.439Z,101817.78
2018-06-05T17:18:13.390Z,101916.31
2018-06-05T17:19:50.758Z,101917.20
2018-06-05T17:21:27.109Z,101946.27
2018-06-05T17:23:05.318Z,101892.97
2018-06-05T17:24:42.844Z,101925.28
2018-06-05T17:26:21.029Z,101864.73
2018-06-05T17:28:00.954Z,101652.15
2018-06-05T17:29:44.231Z,101662.88
2018-06-05T17:31:29.661Z,101788.21
2018-06-05T17:33:13.448Z,101755.04
2018-06-05T17:34:51.980Z,101721.55
2018-06-05T17:36:36.195Z,101745.70
2018-06-05T17:38:21.390Z,101691.08
2018-06-05T17:39:58.102Z,101622.59
2018-06-05T17:41:42.619Z,101762.23
2018-06-05T17:43:31.624Z,101919.38
2018-06-05T17:45:14.724Z,101930.09
2018-06-05T17:46:54.411Z,101854.41
2018-06-05T17:48:32.951Z,101795.81
2018-06-05T17:50:17.928Z,101763.06
2018-06-05T17:52:05.300Z,101615.91
2018-06-05T17:54:01.129Z,101558.18
2018-06-05T17:55:38.524Z,101636.91
2018-06-05T17:57:15.870Z,101652.09
2018-06-05T17:58:53.955Z,101655.21
2018-06-05T18:00:31.815Z,101553.23
2018-06-05T18:02:09.806Z,101574.23
2018-06-05T18:03:55.847Z,101409.25
2018-06-05T18:05:34.219Z,101477.71
2018-06-05T18:07:15.474Z,101483.55
2018-06-05T18:08:52.112Z,101502.30
2018-06-05T18:10:34.510Z,101376.74
2018-06-05T18:12:15.146Z,101477.71
2018-06-05T18:13:54.059Z,101468.70
2018-06-05T18:15:33.127Z,101579.97
2018-06-05T18:17:13.752Z,101682.38
2018-06-05T18:18:56.187Z,101692.64
2018-06-05T18:20:33.388Z,101696.23
2018-06-05T18:22:19.750Z,101736.53
2018-06-05T18:24:02.429Z,101778.19
2018-06-05T18:25:42.563Z,101771.00
2018-06-05T18:27:23.534Z,101723.12
2018-06-05T18:28:59.985Z,101642.19
2018-06-05T18:30:38.344Z,101576.41
2018-06-05T18:32:18.242Z,101604.51
2018-06-05T18:33:57.366Z,101709.20
2018-06-05T18:35:36.493Z,101796.97
2018-06-05T18:37:14.525Z,101817.11
2018-06-05T18:38:55.601Z,101783.88
2018-06-05T18:40:36.351Z,101698.42
2018-06-05T18:42:13.930Z,101578.55
2018-06-05T18:43:57.418Z,101639.89
2018-06-05T18:45:36.374Z,101631.81
2018-06-05T18:47:15.595Z,101495.05
2018-06-05T18:49:01.625Z,101556.67
2018-06-05T18:50:45.523Z,101656.83
2018-06-05T18:52:29.490Z,101647.50
2018-06-05T18:54:08.544Z,101654.59